createdAt,value
2018-01-26T00:00:13.215Z,9.20
2018-01-26T00:02:39.326Z,10.97
2018-01-26T00:05:05.414Z,9.20
2018-01-26T00:07:31.514Z,9.40
2018-01-26T00:09:57.760Z,10.20
2018-01-26T00:12:23.947Z,9.37
2018-01-26T00:14:50.083Z,9.50
2018-01-26T00:17:16.240Z,9.23
2018-01-26T00:19:42.401Z,8.73
2018-01-26T00:22:08.544Z,8.90
2018-01-26T00:24:34.667Z,9.27
2018-01-26T00:27:00.856Z,8.33
2018-01-26T00:29:27.007Z,9.60
2018-01-26T00:31:53.152Z,9.87
2018-01-26T00:34:19.248Z,10.20
2018-01-26T00:36:45.356Z,9.40
2018-01-26T00:39:11.523Z,10.63
2018-01-26T00:41:37.727Z,10.40
2018-01-26T00:44:03.822Z,10.90
2018-01-26T00:46:29.986Z,10.87
2018-01-26T00:48:56.176Z,11.93
2018-01-26T00:51:22.481Z,11.83
2018-01-26T00:53:48.619Z,12.17
2018-01-26T00:56:14.738Z,13.17
2018-01-26T00:58:40.898Z,12.87
2018-01-26T01:01:07.024Z,12.70
2018-01-26T01:03:33.608Z,11.40
2018-01-26T01:05:59.752Z,11.20
2018-01-26T01:08:26.127Z,10.97
2018-01-26T01:10:52.293Z,11.40
2018-01-26T01:13:18.400Z,11.17
2018-01-26T01:15:44.622Z,11.63
2018-01-26T01:18:10.871Z,12.27
2018-01-26T01:20:37.000Z,12.03
2018-01-26T01:23:03.132Z,12.13
2018-01-26T01:25:30.662Z,12.77
2018-01-26T01:27:56.834Z,12.10
2018-01-26T01:30:22.960Z,11.07
2018-01-26T01:32:49.716Z,12.53
2018-01-26T01:35:15.815Z,12.63
2018-01-26T01:37:41.924Z,13.67
2018-01-26T01:40:08.190Z,12.57
2018-01-26T01:42:34.323Z,11.90
2018-01-26T01:45:00.522Z,11.93
2018-01-26T01:47:26.642Z,11.93
2018-01-26T01:49:52.932Z,11.57
2018-01-26T01:52:19.046Z,11.00
2018-01-26T01:54:45.390Z,10.63
2018-01-26T01:57:11.486Z,10.60
2018-01-26T01:59:37.696Z,10.90
2018-01-26T02:02:03.860Z,13.03
2018-01-26T02:04:30.981Z,11.23
2018-01-26T02:06:57.097Z,11.40
2018-01-26T02:09:24.164Z,10.57
2018-01-26T02:11:50.484Z,11.63
2018-01-26T02:14:16.623Z,11.87
2018-01-26T02:16:42.748Z,12.50
2018-01-26T02:19:09.083Z,14.07
2018-01-26T02:21:35.210Z,15.20
2018-01-26T02:24:01.321Z,13.33
2018-01-26T02:26:27.457Z,13.00
2018-01-26T02:29:00.571Z,13.97
2018-01-26T02:31:26.801Z,14.33
2018-01-26T02:33:52.927Z,14.77
2018-01-26T02:36:19.058Z,15.30
2018-01-26T02:38:45.237Z,12.90
2018-01-26T02:41:11.429Z,12.03
2018-01-26T02:43:37.547Z,12.13
2018-01-26T02:46:03.668Z,12.27
2018-01-26T02:48:29.833Z,13.93
2018-01-26T02:50:56.014Z,13.57
2018-01-26T02:53:22.285Z,14.23
2018-01-26T02:55:48.493Z,12.90
2018-01-26T02:58:14.682Z,12.90
2018-01-26T03:00:40.838Z,13.37
2018-01-26T03:03:06.955Z,13.93
2018-01-26T03:05:33.097Z,12.00
2018-01-26T03:07:59.192Z,11.80
2018-01-26T03:10:25.388Z,11.23
2018-01-26T03:12:51.473Z,13.47
2018-01-26T03:15:17.798Z,12.00
2018-01-26T03:17:43.961Z,13.00
2018-01-26T03:20:10.137Z,13.03
2018-01-26T03:22:36.250Z,12.67
2018-01-26T03:25:02.390Z,12.17
2018-01-26T03:27:35.537Z,13.93
2018-01-26T03:30:01.832Z,11.40
2018-01-26T03:32:27.971Z,12.57
2018-01-26T03:34:54.124Z,12.03
2018-01-26T03:37:20.433Z,11.13
2018-01-26T03:39:46.599Z,11.43
2018-01-26T03:42:13.357Z,11.47
2018-01-26T03:44:39.485Z,11.50
2018-01-26T03:47:05.640Z,13.10
2018-01-26T03:49:31.785Z,12.37
2018-01-26T03:51:57.936Z,10.87
2018-01-26T03:54:24.123Z,12.77
2018-01-26T03:56:50.278Z,14.47
2018-01-26T03:59:17.559Z,15.20
2018-01-26T04:01:43.732Z,15.80
2018-01-26T04:04:09.829Z,17.80
2018-01-26T04:06:36.060Z,16.17
2018-01-26T04:09:02.502Z,16.30
2018-01-26T04:11:30.508Z,15.50
2018-01-26T04:13:56.730Z,14.13
2018-01-26T04:16:24.298Z,14.07
2018-01-26T04:18:50.509Z,14.70
2018-01-26T04:21:16.802Z,14.87
2018-01-26T04:23:43.000Z,14.87
2018-01-26T04:26:09.351Z,14.93
2018-01-26T04:28:35.725Z,14.70
2018-01-26T04:31:02.005Z,14.37
2018-01-26T04:33:28.147Z,13.43
2018-01-26T04:35:54.359Z,14.67
2018-01-26T04:38:20.612Z,15.83
2018-01-26T04:40:46.932Z,15.60
2018-01-26T04:43:13.155Z,15.13
2018-01-26T04:45:39.348Z,15.03
2018-01-26T04:48:05.608Z,14.63
2018-01-26T04:50:31.839Z,14.63
2018-01-26T04:52:57.965Z,16.33
2018-01-26T04:55:24.394Z,14.23
2018-01-26T04:57:50.691Z,16.63
2018-01-26T05:00:16.992Z,16.70
2018-01-26T05:02:43.137Z,17.40
2018-01-26T05:05:09.322Z,18.77
2018-01-26T05:07:35.593Z,16.93
2018-01-26T05:10:01.797Z,18.97
2018-01-26T05:12:27.993Z,18.43
2018-01-26T05:14:54.248Z,17.37
2018-01-26T05:17:21.518Z,18.93
2018-01-26T05:19:47.733Z,19.43
2018-01-26T05:22:13.880Z,18.40
2018-01-26T05:24:40.106Z,18.07
2018-01-26T05:27:06.348Z,16.83
2018-01-26T05:29:32.607Z,17.90
2018-01-26T05:31:58.851Z,16.93
2018-01-26T05:34:25.014Z,18.83
2018-01-26T05:36:51.226Z,17.33
2018-01-26T05:39:17.453Z,17.93
2018-01-26T05:41:43.730Z,19.23
2018-01-26T05:44:09.961Z,19.77
2018-01-26T05:46:36.126Z,18.07
2018-01-26T05:49:02.337Z,17.23
2018-01-26T05:51:28.543Z,19.97
2018-01-26T05:53:54.706Z,17.00
2018-01-26T05:56:21.047Z,17.57
2018-01-26T05:58:49.880Z,18.30
2018-01-26T06:01:16.127Z,21.33
2018-01-26T06:03:42.325Z,19.63
2018-01-26T06:06:08.533Z,18.93
2018-01-26T06:08:34.755Z,22.97
2018-01-26T06:11:01.025Z,20.63
2018-01-26T06:13:27.161Z,21.07
2018-01-26T06:15:53.398Z,26.07
2018-01-26T06:18:19.567Z,28.23
2018-01-26T06:20:46.026Z,27.80
2018-01-26T06:23:12.752Z,25.40
2018-01-26T06:25:39.136Z,25.27
2018-01-26T06:28:05.330Z,22.67
2018-01-26T06:30:31.581Z,23.70
2018-01-26T06:32:57.874Z,22.07
2018-01-26T06:35:24.051Z,23.70
2018-01-26T06:37:50.272Z,21.90
2018-01-26T06:40:16.466Z,22.10
2018-01-26T06:42:42.614Z,21.07
2018-01-26T06:45:08.812Z,20.33
2018-01-26T06:47:34.998Z,22.73
2018-01-26T06:50:01.216Z,21.57
2018-01-26T06:52:27.363Z,20.63
2018-01-26T06:54:53.574Z,21.20
2018-01-26T06:57:19.917Z,21.40
2018-01-26T06:59:46.213Z,21.43
2018-01-26T07:02:12.365Z,21.63
2018-01-26T07:04:38.520Z,24.00
2018-01-26T07:07:04.852Z,23.57
2018-01-26T07:09:31.055Z,23.20
2018-01-26T07:11:57.259Z,22.77
2018-01-26T07:14:23.628Z,25.87
2018-01-26T07:16:49.927Z,27.27
2018-01-26T07:19:16.089Z,27.10
2018-01-26T07:21:42.355Z,26.50
2018-01-26T07:24:08.499Z,26.77
2018-01-26T07:26:34.700Z,28.27
2018-01-26T07:29:00.866Z,28.70
2018-01-26T07:31:27.105Z,26.57
2018-01-26T07:33:53.259Z,25.37
2018-01-26T07:36:20.888Z,27.10
2018-01-26T07:38:47.068Z,23.97
2018-01-26T07:41:13.400Z,27.13
2018-01-26T07:43:39.545Z,24.07
2018-01-26T07:46:05.708Z,24.83
2018-01-26T07:48:31.878Z,22.90
2018-01-26T07:50:58.185Z,24.27
2018-01-26T07:53:24.432Z,22.67
2018-01-26T07:55:50.687Z,22.47
2018-01-26T07:58:18.463Z,23.00
2018-01-26T08:00:44.708Z,23.27
2018-01-26T08:03:11.881Z,22.83
2018-01-26T08:05:38.045Z,23.47
2018-01-26T08:08:04.308Z,23.43
2018-01-26T08:10:30.545Z,23.73
2018-01-26T08:12:56.862Z,23.73
2018-01-26T08:15:23.010Z,25.43
2018-01-26T08:17:49.152Z,24.30
2018-01-26T08:20:15.353Z,24.40
2018-01-26T08:22:41.631Z,26.63
2018-01-26T08:25:07.872Z,27.70
2018-01-26T08:27:34.050Z,26.57
2018-01-26T08:30:00.335Z,28.10
2018-01-26T08:32:26.471Z,28.40
2018-01-26T08:34:52.617Z,28.13
2018-01-26T08:37:18.861Z,27.43
2018-01-26T08:39:45.062Z,29.40
2018-01-26T08:42:11.212Z,32.50
2018-01-26T08:44:37.397Z,33.43
2018-01-26T08:47:03.573Z,33.37
2018-01-26T08:49:29.765Z,31.67
2018-01-26T08:51:56.013Z,31.73
2018-01-26T08:54:25.007Z,30.57
2018-01-26T08:56:51.836Z,32.07
2018-01-26T08:59:19.091Z,30.13
2018-01-26T09:01:45.375Z,29.67
2018-01-26T09:04:12.088Z,28.03
2018-01-26T09:06:38.289Z,28.07
2018-01-26T09:09:04.515Z,26.13
2018-01-26T09:11:30.771Z,26.00
2018-01-26T09:13:56.933Z,26.93
2018-01-26T09:16:23.165Z,26.73
2018-01-26T09:18:49.409Z,27.17
2018-01-26T09:21:15.579Z,27.30
2018-01-26T09:23:41.707Z,26.03
2018-01-26T09:26:07.977Z,25.60
2018-01-26T09:28:34.164Z,25.47
2018-01-26T09:31:00.326Z,25.27
2018-01-26T09:33:26.575Z,23.43
2018-01-26T09:35:52.801Z,24.00
2018-01-26T09:38:18.942Z,22.67
2018-01-26T09:40:45.116Z,22.37
2018-01-26T09:43:11.299Z,22.63
2018-01-26T09:45:37.572Z,22.27
2018-01-26T09:48:03.753Z,21.30
2018-01-26T09:50:30.053Z,21.40
2018-01-26T09:52:56.248Z,21.17
2018-01-26T09:55:22.525Z,21.90
2018-01-26T09:57:48.936Z,21.77
2018-01-26T10:00:15.205Z,20.87
2018-01-26T10:02:41.504Z,19.07
2018-01-26T10:05:07.740Z,18.77
2018-01-26T10:07:33.956Z,18.53
2018-01-26T10:10:00.210Z,18.30
2018-01-26T10:12:26.422Z,19.20
2018-01-26T10:14:52.602Z,17.73
2018-01-26T10:17:18.890Z,17.17
2018-01-26T10:19:47.958Z,17.63
2018-01-26T10:22:14.197Z,17.40
2018-01-26T10:24:40.515Z,16.83
2018-01-26T10:27:06.802Z,16.77
2018-01-26T10:29:33.018Z,16.70
2018-01-26T10:31:59.279Z,16.20
2018-01-26T10:34:25.478Z,16.70
2018-01-26T10:36:51.745Z,16.53
2018-01-26T10:39:17.914Z,16.20
2018-01-26T10:41:44.117Z,17.73
2018-01-26T10:44:10.342Z,16.47
2018-01-26T10:46:36.770Z,17.13
2018-01-26T10:49:03.008Z,16.00
2018-01-26T10:51:29.236Z,15.73
2018-01-26T10:53:55.448Z,17.13
2018-01-26T10:56:21.769Z,15.13
2018-01-26T10:58:48.327Z,16.00
2018-01-26T11:01:14.477Z,16.80
2018-01-26T11:03:41.382Z,15.97
2018-01-26T11:06:07.666Z,15.47
2018-01-26T11:08:34.283Z,16.03
2018-01-26T11:11:00.810Z,14.83
2018-01-26T11:13:27.063Z,15.93
2018-01-26T11:15:53.374Z,16.90
2018-01-26T11:18:19.646Z,17.03
2018-01-26T11:20:45.884Z,17.17
2018-01-26T11:23:12.120Z,16.67
2018-01-26T11:25:38.487Z,17.03
2018-01-26T11:28:04.871Z,16.83
2018-01-26T11:30:31.870Z,16.10
2018-01-26T11:32:58.041Z,17.20
2018-01-26T11:35:24.255Z,16.67
2018-01-26T11:37:50.785Z,17.03
2018-01-26T11:40:16.978Z,16.93
2018-01-26T11:42:43.193Z,17.83
2018-01-26T11:45:09.491Z,16.03
2018-01-26T11:47:35.882Z,16.40
2018-01-26T11:50:02.227Z,16.27
2018-01-26T11:52:28.472Z,16.50
2018-01-26T11:54:54.817Z,15.50
2018-01-26T11:57:21.760Z,14.97
2018-01-26T11:59:47.982Z,15.93
2018-01-26T12:02:14.209Z,15.77
2018-01-26T12:04:41.423Z,15.57
2018-01-26T12:07:08.917Z,14.57
2018-01-26T12:09:35.498Z,16.73
2018-01-26T12:12:02.577Z,16.53
2018-01-26T12:14:29.150Z,16.90
2018-01-26T12:16:55.591Z,15.63
2018-01-26T12:19:21.959Z,15.60
2018-01-26T12:21:48.314Z,15.40
2018-01-26T12:24:14.682Z,13.57
2018-01-26T12:26:41.216Z,16.00
2018-01-26T12:29:08.218Z,14.57
2018-01-26T12:31:34.590Z,14.43
2018-01-26T12:34:01.051Z,15.67
2018-01-26T12:36:27.397Z,15.43
2018-01-26T12:38:55.377Z,15.50
2018-01-26T12:41:22.251Z,14.77
2018-01-26T12:43:49.407Z,14.63
2018-01-26T12:46:17.307Z,15.47
2018-01-26T12:48:44.409Z,16.03
2018-01-26T12:51:12.175Z,15.43
2018-01-26T12:53:38.845Z,16.33
2018-01-26T12:56:05.239Z,15.63
2018-01-26T12:58:38.349Z,16.13
2018-01-26T13:01:04.724Z,15.70
2018-01-26T13:03:31.176Z,16.90
2018-01-26T13:05:57.479Z,15.03
2018-01-26T13:08:23.733Z,15.07
2018-01-26T13:10:49.850Z,16.17
2018-01-26T13:13:16.017Z,16.20
2018-01-26T13:15:42.169Z,15.87
2018-01-26T13:18:08.297Z,16.23
2018-01-26T13:20:34.432Z,16.03
2018-01-26T13:23:00.607Z,16.27
2018-01-26T13:25:27.494Z,16.17
2018-01-26T13:27:55.700Z,14.87
2018-01-26T13:30:21.967Z,13.27
2018-01-26T13:32:50.629Z,13.53
2018-01-26T13:35:17.080Z,12.10
2018-01-26T13:37:43.270Z,11.97
2018-01-26T13:40:09.442Z,12.67
2018-01-26T13:42:35.637Z,11.20
2018-01-26T13:45:01.854Z,7.10
2018-01-26T13:47:30.332Z,6.43
2018-01-26T13:49:56.588Z,5.17
2018-01-26T13:52:22.728Z,5.87
2018-01-26T13:54:48.968Z,5.13
2018-01-26T13:57:15.333Z,4.13
2018-01-26T13:59:41.523Z,4.17
2018-01-26T14:02:07.677Z,3.97
2018-01-26T14:04:33.906Z,3.70
2018-01-26T14:07:00.114Z,3.27
2018-01-26T14:09:29.026Z,2.67
2018-01-26T14:11:55.229Z,1.93
2018-01-26T14:14:21.382Z,2.40
2018-01-26T14:16:47.576Z,1.50
2018-01-26T14:19:13.758Z,1.80
2018-01-26T14:21:39.956Z,3.43
2018-01-26T14:24:06.116Z,1.90
2018-01-26T14:26:32.674Z,2.13
2018-01-26T14:28:58.990Z,1.97
2018-01-26T14:31:25.398Z,1.80
2018-01-26T14:33:51.541Z,2.10
2018-01-26T14:36:17.767Z,3.00
2018-01-26T14:38:44.067Z,2.60
2018-01-26T14:41:10.309Z,3.10
2018-01-26T14:43:37.103Z,2.37
2018-01-26T14:46:03.277Z,1.63
2018-01-26T14:48:29.488Z,2.77
2018-01-26T14:50:55.680Z,2.23
2018-01-26T14:53:21.883Z,1.90
2018-01-26T14:55:48.174Z,2.20
2018-01-26T14:58:14.494Z,1.97
2018-01-26T15:00:40.652Z,2.90
2018-01-26T15:03:06.848Z,2.40
2018-01-26T15:05:33.158Z,3.07
2018-01-26T15:07:59.431Z,2.67
2018-01-26T15:10:25.611Z,2.00
2018-01-26T15:12:51.943Z,1.90
2018-01-26T15:15:18.220Z,2.10
2018-01-26T15:17:44.334Z,3.63
2018-01-26T15:20:10.515Z,2.80
2018-01-26T15:22:36.751Z,3.60
2018-01-26T15:25:03.014Z,3.50
2018-01-26T15:27:29.248Z,4.10
2018-01-26T15:29:55.425Z,3.30
2018-01-26T15:32:21.696Z,3.47
2018-01-26T15:34:47.991Z,3.00
2018-01-26T15:37:14.235Z,2.80
2018-01-26T15:39:40.494Z,2.67
2018-01-26T15:42:06.651Z,3.33
2018-01-26T15:44:32.905Z,3.50
2018-01-26T15:46:59.607Z,3.23
2018-01-26T15:49:25.724Z,3.00
2018-01-26T15:51:51.885Z,3.40
2018-01-26T15:54:18.027Z,3.17
2018-01-26T15:56:51.365Z,3.97
2018-01-26T15:59:17.592Z,3.70
2018-01-26T16:01:43.730Z,3.37
2018-01-26T16:04:09.903Z,4.17
2018-01-26T16:06:36.135Z,3.80
2018-01-26T16:09:02.347Z,3.70
2018-01-26T16:11:28.533Z,3.57
2018-01-26T16:13:54.656Z,3.60
2018-01-26T16:16:20.858Z,3.53
2018-01-26T16:18:47.480Z,3.80
2018-01-26T16:21:13.761Z,4.03
2018-01-26T16:23:40.195Z,4.10
2018-01-26T16:26:06.486Z,4.50
2018-01-26T16:28:32.656Z,3.87
2018-01-26T16:30:58.968Z,3.73
2018-01-26T16:33:26.495Z,4.20
2018-01-26T16:35:52.753Z,3.90
2018-01-26T16:38:18.910Z,4.70
2018-01-26T16:40:45.166Z,4.73
2018-01-26T16:43:11.334Z,4.47
2018-01-26T16:45:37.587Z,4.70
2018-01-26T16:48:03.787Z,4.63
2018-01-26T16:50:29.945Z,4.57
2018-01-26T16:52:56.155Z,4.53
2018-01-26T16:55:22.497Z,5.10
2018-01-26T16:57:48.703Z,5.30
2018-01-26T17:00:15.007Z,6.10
2018-01-26T17:02:41.203Z,4.97
2018-01-26T17:05:07.390Z,5.17
2018-01-26T17:07:33.773Z,4.83
2018-01-26T17:09:59.955Z,5.37
2018-01-26T17:12:26.153Z,4.87
2018-01-26T17:14:52.351Z,4.17
2018-01-26T17:17:18.637Z,4.87
2018-01-26T17:19:44.844Z,4.93
2018-01-26T17:22:11.014Z,5.33
2018-01-26T17:24:37.180Z,4.80
2018-01-26T17:27:03.613Z,4.60
2018-01-26T17:29:29.756Z,4.83
2018-01-26T17:31:56.545Z,5.27
2018-01-26T17:34:22.694Z,5.07
2018-01-26T17:36:48.885Z,4.93
2018-01-26T17:39:16.247Z,4.90
2018-01-26T17:41:42.892Z,5.27
2018-01-26T17:44:09.200Z,6.07
2018-01-26T17:46:35.440Z,5.80
2018-01-26T17:49:01.682Z,9.90
2018-01-26T17:51:27.935Z,7.00
2018-01-26T17:53:54.189Z,7.33
2018-01-26T17:56:20.508Z,7.17
2018-01-26T17:58:46.732Z,7.63
2018-01-26T18:01:12.967Z,6.27
2018-01-26T18:03:39.302Z,6.03
2018-01-26T18:06:05.605Z,6.63
2018-01-26T18:08:31.892Z,6.87
2018-01-26T18:10:58.175Z,7.37
2018-01-26T18:13:24.400Z,7.80
2018-01-26T18:15:50.681Z,8.33
2018-01-26T18:18:16.909Z,7.63
2018-01-26T18:20:43.129Z,7.97
2018-01-26T18:23:09.392Z,7.90
2018-01-26T18:25:35.656Z,7.47
2018-01-26T18:28:02.081Z,7.73
2018-01-26T18:30:28.254Z,7.63
2018-01-26T18:32:54.442Z,8.33
2018-01-26T18:35:20.933Z,8.10
2018-01-26T18:37:47.139Z,7.73
2018-01-26T18:40:13.401Z,7.97
2018-01-26T18:42:39.572Z,8.20
2018-01-26T18:45:05.721Z,7.83
2018-01-26T18:47:32.026Z,7.87
2018-01-26T18:49:58.245Z,7.63
2018-01-26T18:52:24.529Z,8.40
2018-01-26T18:54:50.975Z,7.30
2018-01-26T18:57:17.237Z,7.63
2018-01-26T18:59:43.439Z,8.03
2018-01-26T19:02:09.579Z,7.40
2018-01-26T19:04:35.770Z,8.73
2018-01-26T19:07:02.133Z,8.07
2018-01-26T19:09:29.346Z,9.73
2018-01-26T19:11:58.836Z,9.80
2018-01-26T19:14:25.329Z,8.50
2018-01-26T19:16:53.844Z,8.70
2018-01-26T19:19:20.177Z,9.17
2018-01-26T19:21:46.416Z,10.17
2018-01-26T19:24:12.749Z,8.90
2018-01-26T19:26:39.149Z,10.20
2018-01-26T19:29:06.181Z,10.17
2018-01-26T19:31:32.422Z,10.80
2018-01-26T19:33:58.784Z,10.63
2018-01-26T19:36:25.042Z,10.77
2018-01-26T19:38:51.825Z,10.40
2018-01-26T19:41:18.057Z,11.43
2018-01-26T19:43:44.209Z,10.87
2018-01-26T19:46:10.432Z,10.63
2018-01-26T19:48:36.655Z,10.43
2018-01-26T19:51:02.805Z,11.70
2018-01-26T19:53:28.986Z,10.07
2018-01-26T19:55:55.290Z,10.30
2018-01-26T19:58:21.474Z,10.47
2018-01-26T20:00:47.620Z,10.90
2018-01-26T20:03:25.965Z,11.03
2018-01-26T20:05:58.220Z,10.63
2018-01-26T20:08:30.590Z,10.37
2018-01-26T20:10:56.727Z,11.67
2018-01-26T20:13:27.784Z,10.50
2018-01-26T20:15:54.024Z,11.33
2018-01-26T20:18:20.231Z,12.33
2018-01-26T20:20:46.368Z,12.97
2018-01-26T20:23:12.535Z,13.43
2018-01-26T20:25:38.724Z,12.77
2018-01-26T20:28:05.082Z,13.40
2018-01-26T20:30:31.236Z,13.70
2018-01-26T20:32:57.408Z,12.83
2018-01-26T20:35:23.517Z,12.90
2018-01-26T20:37:49.742Z,14.70
2018-01-26T20:40:15.855Z,14.27
2018-01-26T20:42:42.029Z,13.23
2018-01-26T20:45:08.194Z,13.33
2018-01-26T20:47:34.565Z,12.43
2018-01-26T20:50:00.718Z,14.27
2018-01-26T20:52:26.873Z,13.10
2018-01-26T20:54:53.246Z,15.83
2018-01-26T20:57:19.434Z,14.30
2018-01-26T20:59:45.604Z,13.50
2018-01-26T21:02:11.758Z,14.83
2018-01-26T21:04:39.132Z,14.20
2018-01-26T21:07:05.337Z,15.53
2018-01-26T21:09:31.490Z,14.87
2018-01-26T21:11:57.588Z,14.80
2018-01-26T21:14:23.847Z,14.43
2018-01-26T21:16:50.037Z,15.90
2018-01-26T21:19:16.195Z,16.90
2018-01-26T21:21:42.391Z,16.37
2018-01-26T21:24:08.567Z,15.97
2018-01-26T21:26:34.759Z,16.53
2018-01-26T21:29:00.902Z,16.07
2018-01-26T21:31:27.033Z,17.97
2018-01-26T21:33:53.206Z,17.33
2018-01-26T21:36:19.354Z,17.00
2018-01-26T21:38:46.081Z,17.50
2018-01-26T21:41:12.204Z,16.50
2018-01-26T21:43:38.351Z,17.23
2018-01-26T21:46:04.480Z,17.57
2018-01-26T21:48:30.634Z,16.93
2018-01-26T21:50:56.748Z,16.30
2018-01-26T21:53:22.893Z,15.47
2018-01-26T21:55:49.153Z,14.53
2018-01-26T21:58:15.419Z,15.83
2018-01-26T22:00:41.537Z,16.00
2018-01-26T22:03:07.644Z,17.00
2018-01-26T22:05:33.780Z,17.70
2018-01-26T22:07:59.968Z,16.60
2018-01-26T22:10:26.115Z,16.63
2018-01-26T22:12:52.234Z,16.27
2018-01-26T22:15:18.367Z,16.73
2018-01-26T22:17:44.574Z,17.47
2018-01-26T22:20:10.766Z,17.33
2018-01-26T22:22:36.995Z,17.73
2018-01-26T22:25:03.177Z,17.47
2018-01-26T22:27:29.367Z,16.47
2018-01-26T22:29:55.495Z,18.63
2018-01-26T22:32:23.914Z,17.53
2018-01-26T22:34:50.054Z,19.30
2018-01-26T22:37:16.242Z,17.20
2018-01-26T22:39:42.411Z,18.83
2018-01-26T22:42:08.569Z,18.90
2018-01-26T22:44:34.763Z,17.53
2018-01-26T22:47:00.921Z,18.53
2018-01-26T22:49:27.109Z,19.53
2018-01-26T22:51:53.320Z,19.80
2018-01-26T22:54:19.639Z,20.57
2018-01-26T22:56:45.802Z,21.33
2018-01-26T22:59:12.158Z,19.13
2018-01-26T23:01:38.329Z,21.23
2018-01-26T23:04:04.442Z,22.03
2018-01-26T23:06:30.584Z,19.27
2018-01-26T23:08:56.780Z,19.93
2018-01-26T23:11:22.903Z,21.47
2018-01-26T23:13:49.051Z,19.77
2018-01-26T23:16:15.877Z,19.30
2018-01-26T23:18:42.110Z,20.67
2018-01-26T23:21:08.248Z,18.90
2018-01-26T23:23:34.354Z,19.53
2018-01-26T23:26:00.535Z,18.80
2018-01-26T23:28:26.786Z,20.63
2018-01-26T23:30:52.903Z,24.40
2018-01-26T23:33:18.995Z,24.00
2018-01-26T23:35:45.229Z,26.00
2018-01-26T23:38:14.520Z,25.77
2018-01-26T23:40:40.637Z,22.50
2018-01-26T23:43:06.833Z,21.40
2018-01-26T23:45:33.067Z,21.50
2018-01-26T23:47:59.231Z,23.83
2018-01-26T23:50:25.346Z,22.87
2018-01-26T23:52:51.528Z,21.20
2018-01-26T23:55:17.818Z,20.73
2018-01-26T23:57:43.977Z,22.53
